createdAt,value
2022-10-31T00:01:30.312Z,24.93
2022-10-31T00:03:58.805Z,21.97
2022-10-31T00:06:27.360Z,21.87
2022-10-31T00:08:57.281Z,18.60
2022-10-31T00:11:25.971Z,22.30
2022-10-31T00:13:54.667Z,19.53
2022-10-31T00:16:26.101Z,19.30
2022-10-31T00:18:56.418Z,19.43
2022-10-31T00:21:25.268Z,17.50
2022-10-31T00:23:53.829Z,21.53
2022-10-31T00:26:22.644Z,17.13
2022-10-31T00:28:52.064Z,21.10
2022-10-31T00:31:20.659Z,19.70
2022-10-31T00:33:50.583Z,16.73
2022-10-31T00:36:21.622Z,17.03
2022-10-31T00:38:50.360Z,16.93
2022-10-31T00:41:20.008Z,18.87
2022-10-31T00:43:48.604Z,16.73
2022-10-31T00:46:17.467Z,20.23
2022-10-31T00:48:46.115Z,19.97
2022-10-31T00:51:15.974Z,16.90
2022-10-31T00:53:44.513Z,16.47
2022-10-31T00:56:13.037Z,17.67
2022-10-31T00:58:42.195Z,16.10
2022-10-31T01:01:11.213Z,18.83
2022-10-31T01:03:40.911Z,15.60
2022-10-31T01:06:14.944Z,18.17
2022-10-31T01:08:45.215Z,17.97
2022-10-31T01:11:18.260Z,17.77
2022-10-31T01:13:47.130Z,18.40
2022-10-31T01:16:17.037Z,17.23
2022-10-31T01:18:45.556Z,23.53
2022-10-31T01:21:16.086Z,21.10
2022-10-31T01:23:45.969Z,22.10
2022-10-31T01:26:17.744Z,23.27
2022-10-31T01:28:48.343Z,22.03
2022-10-31T01:31:18.437Z,18.93
2022-10-31T01:33:47.300Z,19.00
2022-10-31T01:36:18.219Z,23.87
2022-10-31T01:38:48.540Z,20.37
2022-10-31T01:41:20.462Z,17.23
2022-10-31T01:43:52.298Z,20.07
2022-10-31T01:46:23.853Z,19.80
2022-10-31T01:48:53.163Z,17.63
2022-10-31T01:51:24.218Z,16.70
2022-10-31T01:53:56.479Z,15.03
2022-10-31T01:56:25.057Z,20.37
2022-10-31T01:58:54.038Z,17.60
2022-10-31T02:01:22.823Z,17.47
2022-10-31T02:03:51.482Z,18.20
2022-10-31T02:06:29.038Z,16.40
2022-10-31T02:08:59.356Z,16.70
2022-10-31T02:11:28.354Z,16.00
2022-10-31T02:13:56.869Z,13.37
2022-10-31T02:16:25.671Z,14.83
2022-10-31T02:18:57.174Z,16.80
2022-10-31T02:21:31.702Z,14.07
2022-10-31T02:24:23.934Z,13.80
2022-10-31T02:27:03.827Z,12.07
2022-10-31T02:30:10.003Z,13.43
2022-10-31T02:33:05.250Z,16.07
2022-10-31T02:35:43.891Z,11.63
2022-10-31T02:38:27.460Z,12.53
2022-10-31T02:41:03.494Z,22.13
2022-10-31T02:43:42.014Z,11.70
2022-10-31T02:46:15.308Z,8.63
2022-10-31T02:48:46.686Z,10.17
2022-10-31T02:51:15.643Z,11.30
2022-10-31T02:53:44.634Z,7.70
2022-10-31T02:56:15.163Z,9.57
2022-10-31T02:58:46.515Z,11.17
2022-10-31T03:01:52.465Z,8.93
2022-10-31T03:04:58.416Z,7.27
2022-10-31T03:07:34.000Z,21.23
2022-10-31T03:10:07.270Z,17.70
2022-10-31T03:12:43.229Z,16.00
2022-10-31T03:15:18.073Z,22.33
2022-10-31T03:17:54.618Z,18.17
2022-10-31T03:20:29.337Z,18.63
2022-10-31T03:22:59.148Z,18.33
2022-10-31T03:25:28.332Z,23.67
2022-10-31T03:28:00.723Z,28.40
2022-10-31T03:30:31.465Z,28.80
2022-10-31T03:33:01.899Z,30.60
2022-10-31T03:35:35.035Z,16.33
2022-10-31T03:38:07.748Z,29.33
2022-10-31T03:40:39.020Z,33.93
2022-10-31T03:43:10.063Z,34.50
2022-10-31T03:45:43.065Z,32.83
2022-10-31T03:48:11.826Z,37.27
2022-10-31T03:50:48.232Z,40.13
2022-10-31T03:53:19.648Z,23.07
2022-10-31T03:55:51.742Z,32.13
2022-10-31T03:58:23.588Z,35.20
2022-10-31T04:00:53.514Z,27.10
2022-10-31T04:03:25.092Z,30.80
2022-10-31T04:05:57.541Z,28.73
2022-10-31T04:08:28.859Z,22.33
2022-10-31T04:10:59.719Z,27.73
2022-10-31T04:13:30.632Z,31.23
2022-10-31T04:16:17.146Z,21.07
2022-10-31T04:18:46.365Z,23.17
2022-10-31T04:21:16.249Z,50.00
2022-10-31T04:23:44.946Z,43.40
2022-10-31T04:26:21.327Z,35.87
2022-10-31T04:28:49.927Z,37.43
2022-10-31T04:31:18.736Z,64.80
2022-10-31T04:33:49.671Z,62.37
2022-10-31T04:36:19.566Z,41.33
2022-10-31T04:38:49.783Z,53.80
2022-10-31T04:41:32.861Z,45.10
2022-10-31T04:44:04.209Z,32.37
2022-10-31T04:46:32.732Z,55.00
2022-10-31T04:49:01.708Z,44.83
2022-10-31T04:51:31.625Z,55.90
2022-10-31T04:54:00.188Z,30.47
2022-10-31T04:56:47.199Z,32.80
2022-10-31T04:59:21.390Z,31.90
2022-10-31T05:01:54.222Z,49.03
2022-10-31T05:04:38.248Z,34.47
2022-10-31T05:07:08.511Z,37.33
2022-10-31T05:09:37.028Z,43.70
2022-10-31T05:12:05.725Z,74.80
2022-10-31T05:14:52.959Z,62.97
2022-10-31T05:17:48.021Z,45.23
2022-10-31T05:20:51.340Z,61.40
2022-10-31T05:23:38.188Z,59.67
2022-10-31T05:26:09.373Z,51.03
2022-10-31T05:28:37.864Z,51.47
2022-10-31T05:31:06.958Z,66.13
2022-10-31T05:33:35.533Z,62.73
2022-10-31T05:36:32.764Z,49.30
2022-10-31T05:39:23.339Z,55.03
2022-10-31T05:41:57.021Z,60.03
2022-10-31T05:44:28.844Z,41.30
2022-10-31T05:47:16.377Z,44.00
2022-10-31T05:50:03.312Z,59.73
2022-10-31T05:52:59.113Z,52.30
2022-10-31T05:55:34.593Z,42.07
2022-10-31T05:58:32.323Z,50.87
2022-10-31T06:01:06.456Z,37.70
2022-10-31T06:03:35.348Z,48.53
2022-10-31T06:06:06.260Z,61.00
2022-10-31T06:08:40.205Z,43.43
2022-10-31T06:11:16.127Z,43.63
2022-10-31T06:14:07.633Z,37.67
2022-10-31T06:16:47.589Z,41.33
2022-10-31T06:19:36.402Z,37.33
2022-10-31T06:22:04.945Z,33.87
2022-10-31T06:24:35.276Z,49.67
2022-10-31T06:27:22.980Z,49.67
2022-10-31T06:29:51.735Z,47.23
2022-10-31T06:32:28.564Z,40.00
2022-10-31T06:34:57.098Z,66.27
2022-10-31T06:37:25.728Z,51.53
2022-10-31T06:39:57.258Z,45.47
2022-10-31T06:42:27.086Z,41.53
2022-10-31T06:44:56.366Z,30.60
2022-10-31T06:48:10.893Z,28.97
2022-10-31T06:50:36.499Z,39.07
2022-10-31T06:53:05.197Z,20.73
2022-10-31T06:55:33.678Z,43.10
2022-10-31T06:58:04.807Z,40.40
2022-10-31T07:00:33.913Z,88.17
2022-10-31T07:03:09.439Z,55.90
2022-10-31T07:05:38.408Z,27.93
2022-10-31T07:08:09.552Z,28.87
2022-10-31T07:10:40.744Z,36.27
2022-10-31T07:13:13.878Z,40.80
2022-10-31T07:15:44.581Z,36.33
2022-10-31T07:18:14.174Z,32.03
2022-10-31T07:20:42.799Z,47.37
2022-10-31T07:23:12.549Z,35.03
2022-10-31T07:25:41.723Z,45.97
2022-10-31T07:28:20.581Z,77.13
2022-10-31T07:30:53.494Z,25.63
2022-10-31T07:33:23.425Z,44.23
2022-10-31T07:36:10.406Z,40.97
2022-10-31T07:38:42.825Z,47.03
2022-10-31T07:41:11.641Z,34.20
2022-10-31T07:43:45.821Z,55.23
2022-10-31T07:46:20.363Z,52.33
2022-10-31T07:49:07.977Z,85.13
2022-10-31T07:51:55.243Z,13.27
2022-10-31T07:54:46.655Z,17.57
2022-10-31T07:57:16.007Z,14.50
2022-10-31T07:59:46.691Z,24.83
2022-10-31T08:02:15.151Z,20.83
2022-10-31T08:05:07.355Z,22.27
2022-10-31T08:07:54.331Z,22.40
2022-10-31T08:10:24.595Z,35.63
2022-10-31T08:13:00.271Z,44.63
2022-10-31T08:15:30.297Z,26.33
2022-10-31T08:17:59.562Z,30.53
2022-10-31T08:20:28.313Z,26.10
2022-10-31T08:22:58.301Z,33.40
2022-10-31T08:25:33.821Z,43.50
2022-10-31T08:28:06.618Z,52.00
2022-10-31T08:30:38.053Z,62.23
2022-10-31T08:33:42.111Z,46.80
2022-10-31T08:36:19.203Z,35.87
2022-10-31T08:38:50.700Z,23.77
2022-10-31T08:41:19.885Z,57.50
2022-10-31T08:43:48.636Z,54.60
2022-10-31T08:46:20.378Z,75.00
2022-10-31T08:48:49.938Z,73.27
2022-10-31T08:51:19.808Z,51.77
2022-10-31T08:53:50.838Z,25.33
2022-10-31T08:56:23.339Z,67.00
2022-10-31T08:58:52.489Z,37.60
2022-10-31T09:01:28.012Z,33.53
2022-10-31T09:03:56.709Z,48.77
2022-10-31T09:06:25.278Z,30.70
2022-10-31T09:08:53.925Z,30.00
2022-10-31T09:11:25.683Z,58.60
2022-10-31T09:14:12.607Z,39.93
2022-10-31T09:16:42.411Z,31.10
2022-10-31T09:19:17.751Z,23.13
2022-10-31T09:21:48.754Z,20.73
2022-10-31T09:24:17.463Z,34.33
2022-10-31T09:26:45.956Z,36.50
2022-10-31T09:29:26.680Z,31.47
2022-10-31T09:32:01.127Z,44.93
2022-10-31T09:34:31.103Z,74.33
2022-10-31T09:37:11.692Z,53.87
2022-10-31T09:39:42.465Z,67.57
2022-10-31T09:42:45.502Z,69.80
2022-10-31T09:45:29.481Z,79.80
2022-10-31T09:48:23.913Z,60.43
2022-10-31T09:51:26.011Z,49.47
2022-10-31T09:54:15.776Z,35.93
2022-10-31T09:56:44.915Z,28.37
2022-10-31T09:59:19.100Z,28.23
2022-10-31T10:01:50.836Z,31.77
2022-10-31T10:04:33.319Z,30.60
2022-10-31T10:07:16.664Z,41.57
2022-10-31T10:09:45.454Z,37.37
2022-10-31T10:12:49.951Z,36.20
2022-10-31T10:15:31.059Z,34.60
2022-10-31T10:18:03.744Z,27.53
2022-10-31T10:20:40.233Z,28.33
2022-10-31T10:23:26.008Z,28.40
2022-10-31T10:26:02.412Z,29.50
2022-10-31T10:28:39.159Z,34.10
2022-10-31T10:31:10.357Z,38.23
2022-10-31T10:33:42.337Z,30.47
2022-10-31T10:36:17.850Z,27.03
2022-10-31T10:38:52.059Z,32.13
2022-10-31T10:41:22.414Z,29.27
2022-10-31T10:43:50.735Z,28.70
2022-10-31T10:46:38.799Z,32.77
2022-10-31T10:49:15.928Z,30.10
2022-10-31T10:52:02.757Z,29.27
2022-10-31T10:54:44.976Z,28.13
2022-10-31T10:57:22.535Z,28.37
2022-10-31T10:59:51.594Z,35.50
2022-10-31T11:02:23.790Z,30.20
2022-10-31T11:04:53.722Z,30.60
2022-10-31T11:07:24.133Z,32.47
2022-10-31T11:09:52.556Z,27.83
2022-10-31T11:12:24.601Z,40.83
2022-10-31T11:14:56.888Z,23.03
2022-10-31T11:17:29.374Z,42.03
2022-10-31T11:20:06.308Z,27.97
2022-10-31T11:22:36.140Z,27.53
2022-10-31T11:25:23.231Z,30.47
2022-10-31T11:28:01.748Z,29.43
2022-10-31T11:30:30.861Z,29.77
2022-10-31T11:33:00.753Z,30.20
2022-10-31T11:35:31.131Z,33.47
2022-10-31T11:38:03.434Z,34.97
2022-10-31T11:40:32.419Z,29.97
2022-10-31T11:43:01.282Z,33.57
2022-10-31T11:45:32.972Z,33.93
2022-10-31T11:48:03.349Z,32.53
2022-10-31T11:50:36.255Z,38.93
2022-10-31T11:53:06.331Z,33.10
2022-10-31T11:55:36.627Z,32.50
2022-10-31T11:58:06.157Z,32.53
2022-10-31T12:00:36.066Z,29.57
2022-10-31T12:03:14.506Z,31.43
2022-10-31T12:05:44.136Z,32.13
2022-10-31T12:08:14.727Z,31.60
2022-10-31T12:10:50.728Z,35.73
2022-10-31T12:13:31.726Z,33.27
2022-10-31T12:16:04.924Z,34.07
2022-10-31T12:18:53.239Z,34.20
2022-10-31T12:21:48.801Z,31.27
2022-10-31T12:24:35.442Z,40.77
2022-10-31T12:27:12.204Z,54.10
2022-10-31T12:30:02.828Z,67.20
2022-10-31T12:32:39.650Z,51.70
2022-10-31T12:35:22.353Z,52.30
2022-10-31T12:38:01.817Z,54.47
2022-10-31T12:40:50.251Z,55.47
2022-10-31T12:43:32.148Z,47.83
2022-10-31T12:46:02.040Z,53.03
2022-10-31T12:48:52.796Z,59.80
2022-10-31T12:51:29.358Z,69.57
2022-10-31T12:54:13.433Z,64.50
2022-10-31T12:56:50.871Z,68.40
2022-10-31T12:59:23.918Z,73.63
2022-10-31T13:01:56.610Z,68.80
2022-10-31T13:04:36.161Z,75.70
2022-10-31T13:07:08.754Z,74.20
2022-10-31T13:09:40.873Z,74.00
2022-10-31T13:12:12.902Z,70.53
2022-10-31T13:14:44.439Z,49.10
2022-10-31T13:17:18.824Z,57.97
2022-10-31T13:19:47.554Z,63.17
2022-10-31T13:22:19.469Z,64.03
2022-10-31T13:24:54.903Z,65.03
2022-10-31T13:27:26.080Z,53.10
2022-10-31T13:30:02.212Z,60.00
2022-10-31T13:32:38.637Z,56.77
2022-10-31T13:35:14.826Z,65.50
2022-10-31T13:37:48.731Z,57.30
2022-10-31T13:40:26.416Z,61.03
2022-10-31T13:43:01.201Z,56.50
2022-10-31T13:45:30.347Z,51.77
2022-10-31T13:48:01.278Z,47.20
2022-10-31T13:50:31.143Z,51.43
2022-10-31T13:53:15.328Z,50.23
2022-10-31T13:55:45.308Z,49.67
2022-10-31T13:58:27.215Z,45.30
2022-10-31T14:01:13.851Z,53.63
2022-10-31T14:06:44.451Z,56.83
2022-10-31T14:09:33.347Z,54.63
2022-10-31T14:12:05.298Z,58.23
2022-10-31T14:14:47.645Z,48.70
2022-10-31T14:17:24.816Z,49.43
2022-10-31T14:20:02.738Z,50.77
2022-10-31T14:22:33.893Z,41.33
2022-10-31T14:25:03.988Z,43.77
2022-10-31T14:27:47.422Z,44.67
2022-10-31T14:30:20.093Z,40.83
2022-10-31T14:32:52.872Z,45.60
2022-10-31T14:35:22.806Z,41.10
2022-10-31T14:38:23.783Z,43.97
2022-10-31T14:41:10.376Z,47.73
2022-10-31T14:44:05.545Z,50.03
2022-10-31T14:46:44.571Z,48.43
2022-10-31T14:49:25.927Z,45.00
2022-10-31T14:51:55.527Z,82.47
2022-10-31T14:54:29.976Z,41.90
2022-10-31T14:57:02.008Z,83.57
2022-10-31T14:59:33.591Z,55.67
2022-10-31T15:02:11.627Z,70.33
2022-10-31T15:04:40.858Z,83.33
2022-10-31T15:07:13.885Z,82.00
2022-10-31T15:09:44.474Z,52.47
2022-10-31T15:12:25.083Z,58.30
2022-10-31T15:14:54.081Z,55.90
2022-10-31T15:17:25.958Z,48.33
2022-10-31T15:19:55.739Z,54.13
2022-10-31T15:22:25.761Z,49.07
2022-10-31T15:24:57.233Z,109.50
2022-10-31T15:27:26.188Z,62.80
2022-10-31T15:29:56.951Z,53.77
2022-10-31T15:32:28.242Z,61.47
2022-10-31T15:34:57.812Z,47.53
2022-10-31T15:37:28.176Z,48.43
2022-10-31T15:39:57.095Z,52.53
2022-10-31T15:42:29.570Z,60.07
2022-10-31T15:45:04.669Z,51.87
2022-10-31T15:47:35.832Z,53.83
2022-10-31T15:50:13.729Z,44.90
2022-10-31T15:52:48.022Z,67.90
2022-10-31T15:55:21.742Z,82.50
2022-10-31T15:57:52.541Z,70.63
2022-10-31T16:00:26.559Z,76.23
2022-10-31T16:03:11.157Z,62.73
2022-10-31T16:05:41.336Z,54.13
2022-10-31T16:08:27.306Z,51.73
2022-10-31T16:10:56.386Z,49.73
2022-10-31T16:13:29.096Z,43.60
2022-10-31T16:16:28.742Z,53.10
2022-10-31T16:18:53.171Z,43.17
2022-10-31T16:21:26.714Z,53.47
2022-10-31T16:24:03.761Z,41.90
2022-10-31T16:26:34.944Z,43.33
2022-10-31T16:29:05.675Z,159.40
2022-10-31T16:31:39.334Z,90.53
2022-10-31T16:34:15.919Z,59.20
2022-10-31T16:36:44.482Z,118.47
2022-10-31T16:39:14.517Z,97.03
2022-10-31T16:41:45.306Z,121.03
2022-10-31T16:44:19.449Z,99.00
2022-10-31T16:46:48.104Z,203.60
2022-10-31T16:49:19.675Z,70.00
2022-10-31T16:51:48.433Z,136.97
2022-10-31T16:54:16.931Z,259.13
2022-10-31T16:56:45.385Z,110.93
2022-10-31T16:59:16.387Z,254.30
2022-10-31T17:01:51.161Z,265.37
2022-10-31T17:04:21.071Z,237.83
2022-10-31T17:06:49.525Z,218.37
2022-10-31T17:09:18.191Z,165.77
2022-10-31T17:11:49.762Z,212.17
2022-10-31T17:14:18.679Z,246.80
2022-10-31T17:16:47.169Z,164.57
2022-10-31T17:19:15.938Z,209.80
2022-10-31T17:21:45.671Z,197.87
2022-10-31T17:24:15.562Z,208.73
2022-10-31T17:26:44.055Z,298.53
2022-10-31T17:29:12.603Z,127.03
2022-10-31T17:31:41.132Z,181.30
2022-10-31T17:34:10.163Z,225.80
2022-10-31T17:36:38.911Z,214.07
2022-10-31T17:39:09.704Z,238.90
2022-10-31T17:41:38.208Z,221.67
2022-10-31T17:44:06.674Z,293.40
2022-10-31T17:46:35.159Z,132.27
2022-10-31T17:49:05.088Z,141.70
2022-10-31T17:51:33.878Z,133.67
2022-10-31T17:54:02.571Z,228.77
2022-10-31T17:56:32.427Z,374.77
2022-10-31T17:59:01.296Z,300.77
2022-10-31T18:01:29.831Z,207.33
2022-10-31T18:03:58.774Z,235.03
2022-10-31T18:06:27.331Z,136.67
2022-10-31T18:08:57.922Z,190.00
2022-10-31T18:11:26.355Z,187.37
2022-10-31T18:14:00.508Z,221.70
2022-10-31T18:16:29.036Z,203.17
2022-10-31T18:19:01.719Z,229.07
2022-10-31T18:21:30.590Z,222.53
2022-10-31T18:24:00.801Z,179.30
2022-10-31T18:26:29.382Z,309.57
2022-10-31T18:28:59.271Z,126.97
2022-10-31T18:31:28.070Z,302.53
2022-10-31T18:33:57.726Z,327.27
2022-10-31T18:36:26.783Z,192.77
2022-10-31T18:38:56.134Z,201.47
2022-10-31T18:41:24.701Z,185.07
2022-10-31T18:43:56.107Z,283.97
2022-10-31T18:46:25.943Z,137.40
2022-10-31T18:48:54.518Z,211.50
2022-10-31T18:51:22.979Z,150.13
2022-10-31T18:53:52.880Z,159.60
2022-10-31T18:56:22.188Z,284.13
2022-10-31T18:58:50.816Z,246.73
2022-10-31T19:01:21.021Z,153.53
2022-10-31T19:03:55.732Z,101.70
2022-10-31T19:06:24.995Z,232.37
2022-10-31T19:08:58.955Z,171.93
2022-10-31T19:11:27.908Z,190.17
2022-10-31T19:13:58.121Z,184.77
2022-10-31T19:16:26.793Z,137.17
2022-10-31T19:18:57.320Z,240.97
2022-10-31T19:21:25.837Z,182.30
2022-10-31T19:23:56.467Z,184.03
2022-10-31T19:26:25.785Z,156.30
2022-10-31T19:28:54.658Z,146.30
2022-10-31T19:31:23.530Z,209.20
2022-10-31T19:33:52.389Z,188.43
2022-10-31T19:36:23.876Z,257.13
2022-10-31T19:38:53.555Z,200.57
2022-10-31T19:41:24.221Z,177.87
2022-10-31T19:43:53.400Z,201.30
2022-10-31T19:46:40.486Z,150.63
2022-10-31T19:49:12.958Z,163.77
2022-10-31T19:51:43.011Z,185.97
2022-10-31T19:54:12.562Z,178.90
2022-10-31T19:56:41.238Z,252.20
2022-10-31T19:59:09.899Z,130.30
2022-10-31T20:01:38.741Z,195.87
2022-10-31T20:04:08.004Z,237.17
2022-10-31T20:06:38.870Z,117.87
2022-10-31T20:09:10.867Z,166.20
2022-10-31T20:11:39.672Z,119.20
2022-10-31T20:14:09.701Z,84.60
2022-10-31T20:16:38.623Z,109.87
2022-10-31T20:19:07.696Z,142.00
2022-10-31T20:21:38.439Z,119.73
2022-10-31T20:24:10.627Z,125.60
2022-10-31T20:26:41.170Z,112.97
2022-10-31T20:29:15.806Z,104.60
2022-10-31T20:31:46.353Z,108.30
2022-10-31T20:34:15.286Z,116.37
2022-10-31T20:36:44.056Z,94.37
2022-10-31T20:39:14.282Z,118.17
2022-10-31T20:41:43.173Z,91.87
2022-10-31T20:44:11.864Z,172.63
2022-10-31T20:46:40.651Z,66.07
2022-10-31T20:49:09.538Z,168.37
2022-10-31T20:51:38.380Z,153.27
2022-10-31T20:54:07.873Z,126.27
2022-10-31T20:56:38.065Z,122.00
2022-10-31T20:59:07.769Z,82.70
2022-10-31T21:01:38.490Z,90.93
2022-10-31T21:04:09.839Z,94.63
2022-10-31T21:06:38.979Z,103.33
2022-10-31T21:09:08.916Z,170.00
2022-10-31T21:11:39.118Z,91.63
2022-10-31T21:14:07.844Z,86.33
2022-10-31T21:16:36.972Z,123.93
2022-10-31T21:19:06.085Z,88.67
2022-10-31T21:21:36.528Z,74.67
2022-10-31T21:24:07.950Z,114.80
2022-10-31T21:26:40.948Z,114.50
2022-10-31T21:29:10.729Z,134.70
2022-10-31T21:31:40.056Z,116.23
2022-10-31T21:34:09.173Z,107.07
2022-10-31T21:36:37.943Z,51.33
2022-10-31T21:39:08.472Z,71.37
2022-10-31T21:41:37.251Z,88.87
2022-10-31T21:44:07.444Z,58.70
2022-10-31T21:46:38.585Z,52.57
2022-10-31T21:49:07.613Z,87.73
2022-10-31T21:51:37.234Z,249.80
2022-10-31T21:54:24.048Z,201.43
2022-10-31T21:56:52.802Z,172.70
2022-10-31T21:59:22.781Z,182.13
2022-10-31T22:01:51.983Z,148.73
2022-10-31T22:04:21.032Z,274.20
2022-10-31T22:06:49.712Z,105.73
2022-10-31T22:09:19.803Z,115.90
2022-10-31T22:11:48.548Z,252.73
2022-10-31T22:14:17.471Z,231.17
2022-10-31T22:16:47.721Z,230.90
2022-10-31T22:19:16.499Z,225.67
2022-10-31T22:21:48.913Z,177.37
2022-10-31T22:24:18.797Z,96.70
2022-10-31T22:26:47.794Z,123.17
2022-10-31T22:29:17.765Z,100.17
2022-10-31T22:31:51.877Z,123.73
2022-10-31T22:34:23.987Z,249.57
2022-10-31T22:36:52.702Z,148.60
2022-10-31T22:39:21.792Z,140.13
2022-10-31T22:41:50.774Z,131.27
2022-10-31T22:44:19.518Z,268.30
2022-10-31T22:46:49.553Z,117.50
2022-10-31T22:49:18.357Z,109.37
2022-10-31T22:51:47.240Z,131.90
2022-10-31T22:54:18.390Z,99.37
2022-10-31T22:56:47.643Z,124.00
2022-10-31T22:59:17.747Z,147.87
2022-10-31T23:01:46.966Z,90.63
2022-10-31T23:04:17.525Z,125.27
2022-10-31T23:06:46.170Z,90.33
2022-10-31T23:09:16.425Z,83.63
2022-10-31T23:11:45.448Z,145.30
2022-10-31T23:14:18.515Z,145.60
2022-10-31T23:16:48.711Z,187.73
2022-10-31T23:19:22.032Z,87.37
2022-10-31T23:21:56.088Z,133.33
2022-10-31T23:24:26.499Z,158.70
2022-10-31T23:27:10.714Z,135.97
2022-10-31T23:29:45.196Z,118.83
2022-10-31T23:32:19.398Z,103.13
2022-10-31T23:34:50.576Z,78.37
2022-10-31T23:37:19.985Z,98.03
2022-10-31T23:39:48.823Z,77.33
2022-10-31T23:42:17.414Z,125.80
2022-10-31T23:44:46.439Z,89.07
2022-10-31T23:47:15.513Z,106.07
2022-10-31T23:49:44.381Z,74.50
2022-10-31T23:52:14.900Z,97.30
2022-10-31T23:54:43.463Z,122.13
2022-10-31T23:57:12.590Z,86.37
2022-10-31T23:59:41.157Z,138.13
